sensor_id;sensor_type;location;lat;lon;timestamp;P1;durP1;ratioP1;P2;durP2;ratioP2
68763;SDS011;55754;52.038;5.566;2022-11-20T00:00:57;23.08;;;11.45;;
68763;SDS011;55754;52.038;5.566;2022-11-20T00:03:22;25.03;;;11.90;;
68763;SDS011;55754;52.038;5.566;2022-11-20T00:05:50;28.67;;;12.10;;
68763;SDS011;55754;52.038;5.566;2022-11-20T00:08:16;25.17;;;11.93;;
68763;SDS011;55754;52.038;5.566;2022-11-20T00:10:41;25.05;;;11.82;;
68763;SDS011;55754;52.038;5.566;2022-11-20T00:13:07;21.37;;;10.80;;
68763;SDS011;55754;52.038;5.566;2022-11-20T00:15:33;30.40;;;11.77;;
68763;SDS011;55754;52.038;5.566;2022-11-20T00:17:59;23.33;;;11.45;;
68763;SDS011;55754;52.038;5.566;2022-11-20T00:20:24;25.45;;;12.13;;
68763;SDS011;55754;52.038;5.566;2022-11-20T00:22:50;27.27;;;11.88;;
68763;SDS011;55754;52.038;5.566;2022-11-20T00:25:16;26.27;;;12.25;;
68763;SDS011;55754;52.038;5.566;2022-11-20T00:27:41;25.70;;;12.23;;
68763;SDS011;55754;52.038;5.566;2022-11-20T00:30:10;23.80;;;11.68;;
68763;SDS011;55754;52.038;5.566;2022-11-20T00:32:36;26.80;;;11.80;;
68763;SDS011;55754;52.038;5.566;2022-11-20T00:35:02;25.43;;;11.63;;
68763;SDS011;55754;52.038;5.566;2022-11-20T00:37:27;28.30;;;12.77;;
68763;SDS011;55754;52.038;5.566;2022-11-20T00:39:53;30.25;;;13.45;;
68763;SDS011;55754;52.038;5.566;2022-11-20T00:42:19;26.13;;;12.50;;
68763;SDS011;55754;52.038;5.566;2022-11-20T00:44:44;27.05;;;12.32;;
68763;SDS011;55754;52.038;5.566;2022-11-20T00:47:10;24.50;;;11.13;;
68763;SDS011;55754;52.038;5.566;2022-11-20T00:49:35;25.90;;;12.23;;
68763;SDS011;55754;52.038;5.566;2022-11-20T00:52:01;26.07;;;11.67;;
68763;SDS011;55754;52.038;5.566;2022-11-20T00:54:26;25.20;;;12.00;;
68763;SDS011;55754;52.038;5.566;2022-11-20T00:56:55;25.85;;;12.52;;
68763;SDS011;55754;52.038;5.566;2022-11-20T00:59:21;24.50;;;12.00;;
68763;SDS011;55754;52.038;5.566;2022-11-20T01:01:46;31.03;;;12.60;;
68763;SDS011;55754;52.038;5.566;2022-11-20T01:04:14;23.67;;;12.20;;
68763;SDS011;55754;52.038;5.566;2022-11-20T01:06:40;25.52;;;13.02;;
68763;SDS011;55754;52.038;5.566;2022-11-20T01:09:07;26.85;;;13.00;;
68763;SDS011;55754;52.038;5.566;2022-11-20T01:11:39;25.00;;;12.10;;
68763;SDS011;55754;52.038;5.566;2022-11-20T01:14:13;26.88;;;12.07;;
68763;SDS011;55754;52.038;5.566;2022-11-20T01:16:45;26.60;;;12.63;;
68763;SDS011;55754;52.038;5.566;2022-11-20T01:19:15;26.85;;;11.98;;
68763;SDS011;55754;52.038;5.566;2022-11-20T01:21:44;26.17;;;12.60;;
68763;SDS011;55754;52.038;5.566;2022-11-20T01:24:12;24.33;;;11.93;;
68763;SDS011;55754;52.038;5.566;2022-11-20T01:26:39;25.25;;;12.50;;
68763;SDS011;55754;52.038;5.566;2022-11-20T01:29:14;27.77;;;13.15;;
68763;SDS011;55754;52.038;5.566;2022-11-20T01:31:47;26.85;;;12.68;;
68763;SDS011;55754;52.038;5.566;2022-11-20T01:34:14;27.43;;;13.10;;
68763;SDS011;55754;52.038;5.566;2022-11-20T01:36:42;25.05;;;11.60;;
68763;SDS011;55754;52.038;5.566;2022-11-20T01:39:16;30.15;;;13.43;;
68763;SDS011;55754;52.038;5.566;2022-11-20T01:41:46;28.50;;;13.73;;
68763;SDS011;55754;52.038;5.566;2022-11-20T01:45:42;29.85;;;12.65;;
68763;SDS011;55754;52.038;5.566;2022-11-20T01:47:48;26.05;;;12.18;;
68763;SDS011;55754;52.038;5.566;2022-11-20T01:50:19;29.20;;;13.27;;
68763;SDS011;55754;52.038;5.566;2022-11-20T01:55:19;22.07;;;11.60;;
68763;SDS011;55754;52.038;5.566;2022-11-20T01:57:48;24.48;;;12.02;;
68763;SDS011;55754;52.038;5.566;2022-11-20T02:00:16;23.67;;;11.70;;
68763;SDS011;55754;52.038;5.566;2022-11-20T02:02:44;24.13;;;11.48;;
68763;SDS011;55754;52.038;5.566;2022-11-20T02:05:25;24.27;;;11.68;;
68763;SDS011;55754;52.038;5.566;2022-11-20T02:07:56;28.17;;;11.60;;
68763;SDS011;55754;52.038;5.566;2022-11-20T02:10:22;24.60;;;12.75;;
68763;SDS011;55754;52.038;5.566;2022-11-20T02:12:48;25.05;;;11.63;;
68763;SDS011;55754;52.038;5.566;2022-11-20T02:15:32;23.98;;;12.07;;
68763;SDS011;55754;52.038;5.566;2022-11-20T02:17:58;22.67;;;11.77;;
68763;SDS011;55754;52.038;5.566;2022-11-20T02:20:24;23.50;;;12.18;;
68763;SDS011;55754;52.038;5.566;2022-11-20T02:22:52;26.07;;;12.87;;
68763;SDS011;55754;52.038;5.566;2022-11-20T02:25:24;26.50;;;12.23;;
68763;SDS011;55754;52.038;5.566;2022-11-20T02:27:52;22.80;;;11.60;;
68763;SDS011;55754;52.038;5.566;2022-11-20T02:30:18;21.40;;;11.13;;
68763;SDS011;55754;52.038;5.566;2022-11-20T02:32:47;23.98;;;11.68;;
68763;SDS011;55754;52.038;5.566;2022-11-20T02:37:44;23.10;;;11.43;;
68763;SDS011;55754;52.038;5.566;2022-11-20T02:40:15;25.55;;;12.10;;
68763;SDS011;55754;52.038;5.566;2022-11-20T02:42:41;23.97;;;11.73;;
68763;SDS011;55754;52.038;5.566;2022-11-20T02:45:07;24.13;;;11.88;;
68763;SDS011;55754;52.038;5.566;2022-11-20T02:47:33;28.53;;;11.63;;
68763;SDS011;55754;52.038;5.566;2022-11-20T02:49:58;21.80;;;11.07;;
68763;SDS011;55754;52.038;5.566;2022-11-20T02:52:24;24.97;;;10.60;;
68763;SDS011;55754;52.038;5.566;2022-11-20T02:54:50;26.52;;;11.60;;
68763;SDS011;55754;52.038;5.566;2022-11-20T02:57:16;23.80;;;11.23;;
68763;SDS011;55754;52.038;5.566;2022-11-20T02:59:41;26.00;;;10.60;;
68763;SDS011;55754;52.038;5.566;2022-11-20T03:02:07;20.87;;;10.90;;
68763;SDS011;55754;52.038;5.566;2022-11-20T03:04:32;24.27;;;11.32;;
68763;SDS011;55754;52.038;5.566;2022-11-20T03:07:00;26.17;;;11.33;;
68763;SDS011;55754;52.038;5.566;2022-11-20T03:09:26;25.35;;;11.23;;
68763;SDS011;55754;52.038;5.566;2022-11-20T03:11:51;23.23;;;11.53;;
68763;SDS011;55754;52.038;5.566;2022-11-20T03:14:17;30.57;;;14.13;;
68763;SDS011;55754;52.038;5.566;2022-11-20T03:16:42;25.33;;;12.38;;
68763;SDS011;55754;52.038;5.566;2022-11-20T03:19:08;30.90;;;12.03;;
68763;SDS011;55754;52.038;5.566;2022-11-20T03:21:40;26.27;;;12.80;;
68763;SDS011;55754;52.038;5.566;2022-11-20T03:24:05;25.83;;;10.70;;
68763;SDS011;55754;52.038;5.566;2022-11-20T03:26:31;22.27;;;10.23;;
68763;SDS011;55754;52.038;5.566;2022-11-20T03:29:02;22.33;;;10.73;;
68763;SDS011;55754;52.038;5.566;2022-11-20T03:31:33;24.63;;;10.85;;
68763;SDS011;55754;52.038;5.566;2022-11-20T03:34:05;22.30;;;10.75;;
68763;SDS011;55754;52.038;5.566;2022-11-20T03:36:32;21.53;;;10.07;;
68763;SDS011;55754;52.038;5.566;2022-11-20T03:38:58;26.10;;;10.77;;
68763;SDS011;55754;52.038;5.566;2022-11-20T03:41:28;22.83;;;11.05;;
68763;SDS011;55754;52.038;5.566;2022-11-20T03:43:59;22.47;;;10.60;;
68763;SDS011;55754;52.038;5.566;2022-11-20T03:46:26;21.00;;;10.05;;
68763;SDS011;55754;52.038;5.566;2022-11-20T03:48:52;21.20;;;10.38;;
68763;SDS011;55754;52.038;5.566;2022-11-20T03:51:27;23.83;;;9.95;;
68763;SDS011;55754;52.038;5.566;2022-11-20T03:53:55;23.80;;;10.88;;
68763;SDS011;55754;52.038;5.566;2022-11-20T03:56:23;24.20;;;10.33;;
68763;SDS011;55754;52.038;5.566;2022-11-20T03:58:51;20.17;;;10.00;;
68763;SDS011;55754;52.038;5.566;2022-11-20T04:01:18;21.30;;;10.00;;
68763;SDS011;55754;52.038;5.566;2022-11-20T04:03:48;21.10;;;9.97;;
68763;SDS011;55754;52.038;5.566;2022-11-20T04:06:15;20.95;;;10.23;;
68763;SDS011;55754;52.038;5.566;2022-11-20T04:08:46;21.80;;;10.02;;
68763;SDS011;55754;52.038;5.566;2022-11-20T04:13:41;21.03;;;10.03;;
68763;SDS011;55754;52.038;5.566;2022-11-20T04:16:10;22.33;;;10.13;;
68763;SDS011;55754;52.038;5.566;2022-11-20T04:18:36;20.35;;;10.18;;
68763;SDS011;55754;52.038;5.566;2022-11-20T04:21:02;23.73;;;10.67;;
68763;SDS011;55754;52.038;5.566;2022-11-20T04:23:29;22.05;;;10.43;;
68763;SDS011;55754;52.038;5.566;2022-11-20T04:26:00;25.73;;;10.25;;
68763;SDS011;55754;52.038;5.566;2022-11-20T04:28:27;22.73;;;10.23;;
68763;SDS011;55754;52.038;5.566;2022-11-20T04:30:52;21.93;;;10.00;;
68763;SDS011;55754;52.038;5.566;2022-11-20T04:33:18;24.50;;;10.07;;
68763;SDS011;55754;52.038;5.566;2022-11-20T04:35:43;21.58;;;10.38;;
68763;SDS011;55754;52.038;5.566;2022-11-20T04:38:12;21.13;;;10.03;;
68763;SDS011;55754;52.038;5.566;2022-11-20T04:40:37;25.02;;;10.52;;
68763;SDS011;55754;52.038;5.566;2022-11-20T04:43:06;21.83;;;10.40;;
68763;SDS011;55754;52.038;5.566;2022-11-20T04:45:33;24.33;;;10.50;;
68763;SDS011;55754;52.038;5.566;2022-11-20T04:47:58;20.85;;;10.32;;
68763;SDS011;55754;52.038;5.566;2022-11-20T04:50:24;22.40;;;10.70;;
68763;SDS011;55754;52.038;5.566;2022-11-20T04:52:50;21.05;;;10.50;;
68763;SDS011;55754;52.038;5.566;2022-11-20T04:55:15;24.13;;;10.82;;
68763;SDS011;55754;52.038;5.566;2022-11-20T04:57:41;28.60;;;11.27;;
68763;SDS011;55754;52.038;5.566;2022-11-20T05:00:06;22.87;;;10.87;;
68763;SDS011;55754;52.038;5.566;2022-11-20T05:02:35;23.17;;;10.25;;
68763;SDS011;55754;52.038;5.566;2022-11-20T05:05:01;29.08;;;11.15;;
68763;SDS011;55754;52.038;5.566;2022-11-20T05:07:26;20.23;;;10.20;;
68763;SDS011;55754;52.038;5.566;2022-11-20T05:09:52;25.40;;;10.97;;
68763;SDS011;55754;52.038;5.566;2022-11-20T05:12:17;22.42;;;10.30;;
68763;SDS011;55754;52.038;5.566;2022-11-20T05:14:43;23.02;;;10.98;;
68763;SDS011;55754;52.038;5.566;2022-11-20T05:17:11;22.97;;;11.23;;
68763;SDS011;55754;52.038;5.566;2022-11-20T05:19:37;21.17;;;10.70;;
68763;SDS011;55754;52.038;5.566;2022-11-20T05:22:04;21.67;;;10.70;;
68763;SDS011;55754;52.038;5.566;2022-11-20T05:24:30;23.40;;;10.98;;
68763;SDS011;55754;52.038;5.566;2022-11-20T05:26:55;21.30;;;10.30;;
68763;SDS011;55754;52.038;5.566;2022-11-20T05:29:21;22.77;;;11.00;;
68763;SDS011;55754;52.038;5.566;2022-11-20T05:31:46;23.13;;;11.03;;
68763;SDS011;55754;52.038;5.566;2022-11-20T05:34:12;26.10;;;11.37;;
68763;SDS011;55754;52.038;5.566;2022-11-20T05:36:37;23.10;;;11.23;;
68763;SDS011;55754;52.038;5.566;2022-11-20T05:39:03;22.70;;;10.73;;
68763;SDS011;55754;52.038;5.566;2022-11-20T05:41:28;25.57;;;11.50;;
68763;SDS011;55754;52.038;5.566;2022-11-20T05:43:55;25.13;;;12.30;;
68763;SDS011;55754;52.038;5.566;2022-11-20T05:46:22;25.52;;;11.07;;
68763;SDS011;55754;52.038;5.566;2022-11-20T05:48:47;23.80;;;11.00;;
68763;SDS011;55754;52.038;5.566;2022-11-20T05:51:14;24.27;;;10.47;;
68763;SDS011;55754;52.038;5.566;2022-11-20T05:53:42;21.10;;;10.43;;
68763;SDS011;55754;52.038;5.566;2022-11-20T05:56:09;22.90;;;10.00;;
68763;SDS011;55754;52.038;5.566;2022-11-20T05:58:37;24.98;;;10.20;;
68763;SDS011;55754;52.038;5.566;2022-11-20T06:01:04;20.97;;;9.97;;
68763;SDS011;55754;52.038;5.566;2022-11-20T06:03:30;24.02;;;10.95;;
68763;SDS011;55754;52.038;5.566;2022-11-20T06:05:55;26.23;;;10.23;;
68763;SDS011;55754;52.038;5.566;2022-11-20T06:08:23;22.57;;;10.73;;
68763;SDS011;55754;52.038;5.566;2022-11-20T06:10:48;22.30;;;10.50;;
68763;SDS011;55754;52.038;5.566;2022-11-20T06:13:14;21.20;;;10.13;;
68763;SDS011;55754;52.038;5.566;2022-11-20T06:15:39;24.08;;;10.48;;
68763;SDS011;55754;52.038;5.566;2022-11-20T06:18:05;22.17;;;10.07;;
68763;SDS011;55754;52.038;5.566;2022-11-20T06:20:30;23.83;;;9.97;;
68763;SDS011;55754;52.038;5.566;2022-11-20T06:22:56;20.50;;;9.70;;
68763;SDS011;55754;52.038;5.566;2022-11-20T06:25:21;21.05;;;9.60;;
68763;SDS011;55754;52.038;5.566;2022-11-20T06:27:47;21.50;;;9.97;;
68763;SDS011;55754;52.038;5.566;2022-11-20T06:30:12;32.70;;;10.13;;
68763;SDS011;55754;52.038;5.566;2022-11-20T06:32:38;26.15;;;11.05;;
68763;SDS011;55754;52.038;5.566;2022-11-20T06:35:04;22.40;;;11.23;;
68763;SDS011;55754;52.038;5.566;2022-11-20T06:37:29;22.73;;;10.07;;
68763;SDS011;55754;52.038;5.566;2022-11-20T06:39:55;21.53;;;10.30;;
68763;SDS011;55754;52.038;5.566;2022-11-20T06:42:20;23.30;;;10.70;;
68763;SDS011;55754;52.038;5.566;2022-11-20T06:44:46;24.58;;;10.90;;
68763;SDS011;55754;52.038;5.566;2022-11-20T06:47:13;21.70;;;10.30;;
68763;SDS011;55754;52.038;5.566;2022-11-20T06:49:38;23.20;;;10.70;;
68763;SDS011;55754;52.038;5.566;2022-11-20T06:52:04;26.83;;;10.23;;
68763;SDS011;55754;52.038;5.566;2022-11-20T06:54:29;25.52;;;10.57;;
68763;SDS011;55754;52.038;5.566;2022-11-20T06:56:55;23.90;;;10.83;;
68763;SDS011;55754;52.038;5.566;2022-11-20T06:59:21;21.30;;;11.00;;
68763;SDS011;55754;52.038;5.566;2022-11-20T07:01:46;22.20;;;10.80;;
68763;SDS011;55754;52.038;5.566;2022-11-20T07:04:12;21.57;;;9.53;;
68763;SDS011;55754;52.038;5.566;2022-11-20T07:06:37;23.10;;;9.82;;
68763;SDS011;55754;52.038;5.566;2022-11-20T07:09:03;24.37;;;10.87;;
68763;SDS011;55754;52.038;5.566;2022-11-20T07:11:29;21.35;;;10.40;;
68763;SDS011;55754;52.038;5.566;2022-11-20T07:13:54;22.10;;;10.77;;
68763;SDS011;55754;52.038;5.566;2022-11-20T07:16:22;21.98;;;9.93;;
68763;SDS011;55754;52.038;5.566;2022-11-20T07:18:50;21.88;;;11.18;;
68763;SDS011;55754;52.038;5.566;2022-11-20T07:21:16;21.10;;;10.87;;
68763;SDS011;55754;52.038;5.566;2022-11-20T07:23:42;21.23;;;10.90;;
68763;SDS011;55754;52.038;5.566;2022-11-20T07:26:08;21.07;;;10.03;;
68763;SDS011;55754;52.038;5.566;2022-11-20T07:28:34;21.13;;;10.57;;
68763;SDS011;55754;52.038;5.566;2022-11-20T07:31:00;23.58;;;10.13;;
68763;SDS011;55754;52.038;5.566;2022-11-20T07:33:26;24.23;;;10.43;;
68763;SDS011;55754;52.038;5.566;2022-11-20T07:35:52;19.52;;;9.55;;
68763;SDS011;55754;52.038;5.566;2022-11-20T07:38:18;23.10;;;10.00;;
68763;SDS011;55754;52.038;5.566;2022-11-20T07:40:43;19.40;;;9.68;;
68763;SDS011;55754;52.038;5.566;2022-11-20T07:43:09;21.23;;;10.40;;
68763;SDS011;55754;52.038;5.566;2022-11-20T07:45:34;19.43;;;10.03;;
68763;SDS011;55754;52.038;5.566;2022-11-20T07:48:00;23.33;;;10.07;;
68763;SDS011;55754;52.038;5.566;2022-11-20T07:50:25;20.07;;;10.33;;
68763;SDS011;55754;52.038;5.566;2022-11-20T07:52:51;22.30;;;9.10;;
68763;SDS011;55754;52.038;5.566;2022-11-20T07:55:17;27.38;;;13.13;;
68763;SDS011;55754;52.038;5.566;2022-11-20T07:57:43;33.15;;;15.82;;
68763;SDS011;55754;52.038;5.566;2022-11-20T08:00:09;21.98;;;9.80;;
68763;SDS011;55754;52.038;5.566;2022-11-20T08:02:37;25.90;;;12.65;;
68763;SDS011;55754;52.038;5.566;2022-11-20T08:05:06;20.30;;;9.87;;
68763;SDS011;55754;52.038;5.566;2022-11-20T08:07:42;21.73;;;10.25;;
68763;SDS011;55754;52.038;5.566;2022-11-20T08:10:09;20.70;;;10.15;;
68763;SDS011;55754;52.038;5.566;2022-11-20T08:12:36;21.67;;;10.40;;
68763;SDS011;55754;52.038;5.566;2022-11-20T08:15:28;21.10;;;9.95;;
68763;SDS011;55754;52.038;5.566;2022-11-20T08:18:09;21.90;;;9.83;;
68763;SDS011;55754;52.038;5.566;2022-11-20T08:20:39;21.35;;;9.55;;
68763;SDS011;55754;52.038;5.566;2022-11-20T08:23:05;19.35;;;10.52;;
68763;SDS011;55754;52.038;5.566;2022-11-20T08:25:33;23.40;;;10.17;;
68763;SDS011;55754;52.038;5.566;2022-11-20T08:28:00;19.52;;;10.05;;
68763;SDS011;55754;52.038;5.566;2022-11-20T08:30:27;22.83;;;9.55;;
68763;SDS011;55754;52.038;5.566;2022-11-20T08:32:53;20.13;;;9.88;;
68763;SDS011;55754;52.038;5.566;2022-11-20T08:35:20;20.00;;;10.02;;
68763;SDS011;55754;52.038;5.566;2022-11-20T08:37:47;22.57;;;9.87;;
68763;SDS011;55754;52.038;5.566;2022-11-20T08:40:12;21.48;;;10.18;;
68763;SDS011;55754;52.038;5.566;2022-11-20T08:42:48;20.38;;;9.80;;
68763;SDS011;55754;52.038;5.566;2022-11-20T08:45:14;19.92;;;10.27;;
68763;SDS011;55754;52.038;5.566;2022-11-20T08:47:43;20.15;;;10.07;;
68763;SDS011;55754;52.038;5.566;2022-11-20T08:50:10;19.10;;;9.53;;
68763;SDS011;55754;52.038;5.566;2022-11-20T08:52:37;22.55;;;10.45;;
68763;SDS011;55754;52.038;5.566;2022-11-20T08:55:03;20.17;;;10.20;;
68763;SDS011;55754;52.038;5.566;2022-11-20T08:57:33;19.80;;;10.27;;
68763;SDS011;55754;52.038;5.566;2022-11-20T08:59:59;22.30;;;10.47;;
68763;SDS011;55754;52.038;5.566;2022-11-20T09:02:25;22.13;;;10.45;;
68763;SDS011;55754;52.038;5.566;2022-11-20T09:04:51;22.05;;;10.90;;
68763;SDS011;55754;52.038;5.566;2022-11-20T09:07:18;20.77;;;10.60;;
68763;SDS011;55754;52.038;5.566;2022-11-20T09:09:43;20.27;;;10.80;;
68763;SDS011;55754;52.038;5.566;2022-11-20T09:12:09;21.90;;;10.87;;
68763;SDS011;55754;52.038;5.566;2022-11-20T09:14:34;21.77;;;10.97;;
68763;SDS011;55754;52.038;5.566;2022-11-20T09:17:00;20.42;;;10.77;;
68763;SDS011;55754;52.038;5.566;2022-11-20T09:19:25;20.07;;;10.20;;
68763;SDS011;55754;52.038;5.566;2022-11-20T09:21:51;23.80;;;11.77;;
68763;SDS011;55754;52.038;5.566;2022-11-20T09:24:17;23.20;;;11.75;;
68763;SDS011;55754;52.038;5.566;2022-11-20T09:26:46;23.67;;;10.95;;
68763;SDS011;55754;52.038;5.566;2022-11-20T09:29:12;22.88;;;11.85;;
68763;SDS011;55754;52.038;5.566;2022-11-20T09:31:37;23.13;;;11.23;;
68763;SDS011;55754;52.038;5.566;2022-11-20T09:34:03;24.30;;;10.80;;
68763;SDS011;55754;52.038;5.566;2022-11-20T09:36:31;23.55;;;11.65;;
68763;SDS011;55754;52.038;5.566;2022-11-20T09:38:57;24.17;;;12.17;;
68763;SDS011;55754;52.038;5.566;2022-11-20T09:50:19;24.30;;;12.25;;
68763;SDS011;55754;52.038;5.566;2022-11-20T09:53:07;23.15;;;11.93;;
68763;SDS011;55754;52.038;5.566;2022-11-20T09:55:41;22.67;;;11.63;;
68763;SDS011;55754;52.038;5.566;2022-11-20T09:58:12;26.73;;;11.83;;
68763;SDS011;55754;52.038;5.566;2022-11-20T10:00:44;20.67;;;11.30;;
68763;SDS011;55754;52.038;5.566;2022-11-20T10:03:13;22.70;;;11.52;;
68763;SDS011;55754;52.038;5.566;2022-11-20T10:05:45;24.27;;;12.95;;
68763;SDS011;55754;52.038;5.566;2022-11-20T10:08:19;27.90;;;12.63;;
68763;SDS011;55754;52.038;5.566;2022-11-20T10:10:47;25.27;;;12.30;;
68763;SDS011;55754;52.038;5.566;2022-11-20T10:13:40;24.13;;;11.38;;
68763;SDS011;55754;52.038;5.566;2022-11-20T10:16:59;24.75;;;12.23;;
68763;SDS011;55754;52.038;5.566;2022-11-20T10:25:24;23.07;;;11.93;;
68763;SDS011;55754;52.038;5.566;2022-11-20T10:31:00;26.35;;;12.65;;
68763;SDS011;55754;52.038;5.566;2022-11-20T10:33:30;27.52;;;13.65;;
68763;SDS011;55754;52.038;5.566;2022-11-20T10:38:50;26.45;;;13.30;;
68763;SDS011;55754;52.038;5.566;2022-11-20T10:41:26;28.73;;;14.07;;
68763;SDS011;55754;52.038;5.566;2022-11-20T10:44:03;28.67;;;14.07;;
68763;SDS011;55754;52.038;5.566;2022-11-20T10:46:39;26.17;;;13.65;;
68763;SDS011;55754;52.038;5.566;2022-11-20T10:49:17;26.38;;;13.68;;
68763;SDS011;55754;52.038;5.566;2022-11-20T11:01:06;27.17;;;14.52;;
68763;SDS011;55754;52.038;5.566;2022-11-20T11:03:43;29.85;;;15.20;;
68763;SDS011;55754;52.038;5.566;2022-11-20T11:06:17;24.93;;;12.97;;
68763;SDS011;55754;52.038;5.566;2022-11-20T11:08:46;28.73;;;15.95;;
68763;SDS011;55754;52.038;5.566;2022-11-20T11:11:32;26.40;;;14.57;;
68763;SDS011;55754;52.038;5.566;2022-11-20T11:14:09;27.53;;;14.77;;
68763;SDS011;55754;52.038;5.566;2022-11-20T11:16:40;27.45;;;13.80;;
68763;SDS011;55754;52.038;5.566;2022-11-20T11:19:17;27.67;;;14.35;;
68763;SDS011;55754;52.038;5.566;2022-11-20T11:21:46;29.13;;;14.63;;
68763;SDS011;55754;52.038;5.566;2022-11-20T11:24:24;27.95;;;14.07;;
68763;SDS011;55754;52.038;5.566;2022-11-20T11:26:52;28.13;;;14.88;;
68763;SDS011;55754;52.038;5.566;2022-11-20T11:29:29;29.15;;;14.65;;
68763;SDS011;55754;52.038;5.566;2022-11-20T11:35:04;27.03;;;13.73;;
68763;SDS011;55754;52.038;5.566;2022-11-20T11:37:37;26.77;;;13.48;;
68763;SDS011;55754;52.038;5.566;2022-11-20T11:40:04;28.25;;;14.13;;
68763;SDS011;55754;52.038;5.566;2022-11-20T11:42:31;27.65;;;14.10;;
68763;SDS011;55754;52.038;5.566;2022-11-20T11:44:58;27.48;;;14.40;;
68763;SDS011;55754;52.038;5.566;2022-11-20T11:47:32;26.23;;;14.70;;
68763;SDS011;55754;52.038;5.566;2022-11-20T11:52:28;28.95;;;14.90;;
68763;SDS011;55754;52.038;5.566;2022-11-20T11:54:57;26.85;;;14.00;;
68763;SDS011;55754;52.038;5.566;2022-11-20T12:02:49;30.13;;;15.55;;
68763;SDS011;55754;52.038;5.566;2022-11-20T12:05:29;28.93;;;15.37;;
68763;SDS011;55754;52.038;5.566;2022-11-20T12:08:03;27.03;;;14.37;;
68763;SDS011;55754;52.038;5.566;2022-11-20T12:13:21;28.98;;;14.10;;
68763;SDS011;55754;52.038;5.566;2022-11-20T12:15:57;27.38;;;13.55;;
68763;SDS011;55754;52.038;5.566;2022-11-20T12:18:23;27.23;;;13.90;;
68763;SDS011;55754;52.038;5.566;2022-11-20T12:26:59;27.00;;;13.93;;
68763;SDS011;55754;52.038;5.566;2022-11-20T12:34:46;27.25;;;14.73;;
68763;SDS011;55754;52.038;5.566;2022-11-20T12:40:17;26.80;;;13.67;;
68763;SDS011;55754;52.038;5.566;2022-11-20T12:49:15;30.13;;;14.90;;
68763;SDS011;55754;52.038;5.566;2022-11-20T12:57:44;27.25;;;14.20;;
68763;SDS011;55754;52.038;5.566;2022-11-20T13:00:28;30.35;;;15.23;;
68763;SDS011;55754;52.038;5.566;2022-11-20T13:05:41;27.38;;;13.82;;
68763;SDS011;55754;52.038;5.566;2022-11-20T13:08:28;25.43;;;12.97;;
68763;SDS011;55754;52.038;5.566;2022-11-20T13:11:10;27.23;;;14.50;;
68763;SDS011;55754;52.038;5.566;2022-11-20T13:16:37;27.65;;;13.43;;
68763;SDS011;55754;52.038;5.566;2022-11-20T13:19:12;30.08;;;14.52;;
68763;SDS011;55754;52.038;5.566;2022-11-20T13:21:41;30.90;;;14.47;;
68763;SDS011;55754;52.038;5.566;2022-11-20T13:26:48;27.42;;;14.45;;
68763;SDS011;55754;52.038;5.566;2022-11-20T13:29:28;28.13;;;13.50;;
68763;SDS011;55754;52.038;5.566;2022-11-20T13:32:02;28.38;;;13.88;;
68763;SDS011;55754;52.038;5.566;2022-11-20T13:34:38;23.97;;;12.40;;
68763;SDS011;55754;52.038;5.566;2022-11-20T13:37:03;29.23;;;14.90;;
68763;SDS011;55754;52.038;5.566;2022-11-20T13:39:30;28.38;;;14.15;;
68763;SDS011;55754;52.038;5.566;2022-11-20T13:42:00;29.00;;;15.20;;
68763;SDS011;55754;52.038;5.566;2022-11-20T13:44:46;28.42;;;14.60;;
68763;SDS011;55754;52.038;5.566;2022-11-20T13:47:22;34.17;;;15.80;;
68763;SDS011;55754;52.038;5.566;2022-11-20T13:49:50;31.65;;;15.50;;
68763;SDS011;55754;52.038;5.566;2022-11-20T14:00:18;29.08;;;14.82;;
68763;SDS011;55754;52.038;5.566;2022-11-20T14:02:50;27.60;;;13.90;;
68763;SDS011;55754;52.038;5.566;2022-11-20T14:05:30;27.98;;;14.13;;
68763;SDS011;55754;52.038;5.566;2022-11-20T14:08:05;28.33;;;14.80;;
68763;SDS011;55754;52.038;5.566;2022-11-20T14:10:37;30.38;;;15.20;;
68763;SDS011;55754;52.038;5.566;2022-11-20T14:13:37;30.63;;;14.77;;
68763;SDS011;55754;52.038;5.566;2022-11-20T14:15:56;30.80;;;14.77;;
68763;SDS011;55754;52.038;5.566;2022-11-20T14:18:31;28.67;;;15.00;;
68763;SDS011;55754;52.038;5.566;2022-11-20T14:21:00;30.38;;;15.25;;
68763;SDS011;55754;52.038;5.566;2022-11-20T14:23:27;32.93;;;16.30;;
68763;SDS011;55754;52.038;5.566;2022-11-20T14:25:53;30.13;;;15.85;;
68763;SDS011;55754;52.038;5.566;2022-11-20T14:28:29;31.48;;;16.90;;
68763;SDS011;55754;52.038;5.566;2022-11-20T14:30:56;30.13;;;15.32;;
68763;SDS011;55754;52.038;5.566;2022-11-20T14:33:22;29.63;;;14.70;;
68763;SDS011;55754;52.038;5.566;2022-11-20T14:35:56;31.33;;;15.60;;
68763;SDS011;55754;52.038;5.566;2022-11-20T14:38:29;34.85;;;16.88;;
68763;SDS011;55754;52.038;5.566;2022-11-20T14:41:16;33.17;;;15.77;;
68763;SDS011;55754;52.038;5.566;2022-11-20T14:43:47;31.55;;;15.70;;
68763;SDS011;55754;52.038;5.566;2022-11-20T14:46:18;31.07;;;14.40;;
68763;SDS011;55754;52.038;5.566;2022-11-20T14:48:48;32.60;;;16.38;;
68763;SDS011;55754;52.038;5.566;2022-11-20T14:51:32;35.22;;;16.83;;
68763;SDS011;55754;52.038;5.566;2022-11-20T14:54:18;28.53;;;15.20;;
68763;SDS011;55754;52.038;5.566;2022-11-20T14:56:54;34.10;;;16.83;;
68763;SDS011;55754;52.038;5.566;2022-11-20T14:59:24;36.53;;;16.88;;
68763;SDS011;55754;52.038;5.566;2022-11-20T15:01:55;31.98;;;16.30;;
68763;SDS011;55754;52.038;5.566;2022-11-20T15:04:23;36.42;;;16.70;;
68763;SDS011;55754;52.038;5.566;2022-11-20T15:06:50;33.20;;;17.33;;
68763;SDS011;55754;52.038;5.566;2022-11-20T15:09:17;33.38;;;17.27;;
68763;SDS011;55754;52.038;5.566;2022-11-20T15:11:52;37.67;;;17.83;;
68763;SDS011;55754;52.038;5.566;2022-11-20T15:14:24;38.13;;;18.15;;
68763;SDS011;55754;52.038;5.566;2022-11-20T15:16:57;34.53;;;16.25;;
68763;SDS011;55754;52.038;5.566;2022-11-20T15:19:25;35.10;;;17.95;;
68763;SDS011;55754;52.038;5.566;2022-11-20T15:21:51;36.03;;;18.30;;
68763;SDS011;55754;52.038;5.566;2022-11-20T15:24:17;37.27;;;17.70;;
68763;SDS011;55754;52.038;5.566;2022-11-20T15:26:43;36.50;;;18.35;;
68763;SDS011;55754;52.038;5.566;2022-11-20T15:29:13;41.22;;;17.60;;
68763;SDS011;55754;52.038;5.566;2022-11-20T15:31:43;34.07;;;15.03;;
68763;SDS011;55754;52.038;5.566;2022-11-20T15:34:13;38.25;;;18.70;;
68763;SDS011;55754;52.038;5.566;2022-11-20T15:36:40;37.17;;;18.30;;
68763;SDS011;55754;52.038;5.566;2022-11-20T15:39:06;34.58;;;16.27;;
68763;SDS011;55754;52.038;5.566;2022-11-20T15:41:33;41.83;;;18.30;;
68763;SDS011;55754;52.038;5.566;2022-11-20T15:43:59;33.88;;;16.45;;
68763;SDS011;55754;52.038;5.566;2022-11-20T15:46:28;37.72;;;17.88;;
68763;SDS011;55754;52.038;5.566;2022-11-20T15:48:58;37.95;;;17.15;;
68763;SDS011;55754;52.038;5.566;2022-11-20T15:51:38;39.88;;;17.85;;
68763;SDS011;55754;52.038;5.566;2022-11-20T15:54:14;37.08;;;17.58;;
68763;SDS011;55754;52.038;5.566;2022-11-20T15:56:43;32.97;;;16.60;;
68763;SDS011;55754;52.038;5.566;2022-11-20T15:59:08;36.33;;;18.07;;
68763;SDS011;55754;52.038;5.566;2022-11-20T16:01:34;38.53;;;17.65;;
68763;SDS011;55754;52.038;5.566;2022-11-20T16:04:00;36.10;;;18.97;;
68763;SDS011;55754;52.038;5.566;2022-11-20T16:06:26;34.45;;;17.17;;
68763;SDS011;55754;52.038;5.566;2022-11-20T16:08:51;34.70;;;16.27;;